Hooper Bay Airport Hooper Bay US
ICAO: PAHP
IATA:
Category: Medium
Scheduled Services:

Elevation: 13 ft
TransAlt. 18000 ft.

Airport Communications:
AWOS 3:135.1
CTAF:123
KENAI RDO:122.4
TWEB:115.2

PAHP Zoom In..

If you have problems with the map follow the link
https://www.worldairports.se/pages/airport.php?
ICAO=PAHP

Runways:

(A) RW 13 length 3300 ft width 75 ft
---- / hdg 136

(B) RW 31 length 3300 ft width 75 ft
---- / hdg 316

Location; PAHP
Day. 19 / Time. 20.56 Zulu
* Altimeter: 29.02
* Temperature: 6/° c. 42.8°f.
* Wind from: 030° Speed 33 kn with Gusts up to 44 kn.
Dewpoint: //° c.
Visibility: 10 Statute Miles.
Clouds: Broken 6000 ft.
Clouds: Overcast 8000 ft.

PAHP 192056Z AUTO 03033G44KT 10SM BKN060 OVC080 M11/M14 A2902 RMK AO2 PK WND 03044/2049 SLP828 6//// T11061144 56063 FZRANO


Wind From 030°
Speed 33 kn.

 
 
jpsmedia worldairports.se 2019   terms of use